sensor_id;sensor_type;location;lat;lon;timestamp;pressure;altitude;pressure_sealevel;temperature;humidity
27334;BME280;14817;57.104;-2.094;2023-06-26T00:01:54;99167.47;;;14.02;100.00
27334;BME280;14817;57.104;-2.094;2023-06-26T00:04:24;99159.63;;;13.94;100.00
27334;BME280;14817;57.104;-2.094;2023-06-26T00:06:53;99153.41;;;13.80;100.00
27334;BME280;14817;57.104;-2.094;2023-06-26T00:09:23;99157.34;;;13.78;100.00
27334;BME280;14817;57.104;-2.094;2023-06-26T00:11:53;99168.09;;;13.71;100.00
27334;BME280;14817;57.104;-2.094;2023-06-26T00:14:20;99171.41;;;13.93;100.00
27334;BME280;14817;57.104;-2.094;2023-06-26T00:16:52;99180.53;;;13.99;100.00
27334;BME280;14817;57.104;-2.094;2023-06-26T00:19:19;99175.97;;;13.99;100.00
27334;BME280;14817;57.104;-2.094;2023-06-26T00:21:49;99195.63;;;13.86;100.00
27334;BME280;14817;57.104;-2.094;2023-06-26T00:24:21;99187.56;;;13.93;100.00
27334;BME280;14817;57.104;-2.094;2023-06-26T00:26:53;99194.19;;;13.84;100.00
27334;BME280;14817;57.104;-2.094;2023-06-26T00:29:20;99188.16;;;13.95;100.00
27334;BME280;14817;57.104;-2.094;2023-06-26T00:31:47;99186.31;;;13.82;100.00
27334;BME280;14817;57.104;-2.094;2023-06-26T00:34:13;99171.59;;;13.72;100.00
27334;BME280;14817;57.104;-2.094;2023-06-26T00:36:41;99169.75;;;13.79;100.00
27334;BME280;14817;57.104;-2.094;2023-06-26T00:39:11;99158.56;;;13.82;100.00
27334;BME280;14817;57.104;-2.094;2023-06-26T00:41:38;99162.53;;;13.73;100.00
27334;BME280;14817;57.104;-2.094;2023-06-26T00:44:05;99156.91;;;13.67;100.00
27334;BME280;14817;57.104;-2.094;2023-06-26T00:46:32;99160.66;;;13.53;100.00
27334;BME280;14817;57.104;-2.094;2023-06-26T00:49:02;99151.13;;;13.71;100.00
27334;BME280;14817;57.104;-2.094;2023-06-26T00:51:30;99136.25;;;13.61;100.00
27334;BME280;14817;57.104;-2.094;2023-06-26T00:53:57;99129.59;;;13.71;100.00
27334;BME280;14817;57.104;-2.094;2023-06-26T00:56:24;99123.19;;;13.72;100.00
27334;BME280;14817;57.104;-2.094;2023-06-26T00:58:51;99114.28;;;13.64;100.00
27334;BME280;14817;57.104;-2.094;2023-06-26T01:01:18;99100.66;;;13.59;100.00
27334;BME280;14817;57.104;-2.094;2023-06-26T01:03:49;99107.44;;;13.42;100.00
27334;BME280;14817;57.104;-2.094;2023-06-26T01:06:22;99093.19;;;13.48;100.00
27334;BME280;14817;57.104;-2.094;2023-06-26T01:08:50;99082.41;;;13.35;100.00
27334;BME280;14817;57.104;-2.094;2023-06-26T01:11:19;99076.84;;;13.43;100.00
27334;BME280;14817;57.104;-2.094;2023-06-26T01:13:46;99074.34;;;13.35;100.00
27334;BME280;14817;57.104;-2.094;2023-06-26T01:16:14;99070.41;;;13.31;100.00
27334;BME280;14817;57.104;-2.094;2023-06-26T01:18:41;99066.25;;;13.28;100.00
27334;BME280;14817;57.104;-2.094;2023-06-26T01:21:10;99059.63;;;13.17;100.00
27334;BME280;14817;57.104;-2.094;2023-06-26T01:26:23;99062.50;;;13.02;100.00
27334;BME280;14817;57.104;-2.094;2023-06-26T01:28:53;99055.06;;;13.04;100.00
27334;BME280;14817;57.104;-2.094;2023-06-26T01:31:26;99058.75;;;12.97;100.00
27334;BME280;14817;57.104;-2.094;2023-06-26T01:33:53;99063.50;;;12.95;100.00
27334;BME280;14817;57.104;-2.094;2023-06-26T01:36:21;99050.94;;;12.95;100.00
27334;BME280;14817;57.104;-2.094;2023-06-26T01:38:48;99062.88;;;12.79;100.00
27334;BME280;14817;57.104;-2.094;2023-06-26T01:41:15;99062.84;;;12.73;100.00
27334;BME280;14817;57.104;-2.094;2023-06-26T01:46:43;99069.84;;;12.67;100.00
27334;BME280;14817;57.104;-2.094;2023-06-26T01:54:46;99050.22;;;12.60;100.00
27334;BME280;14817;57.104;-2.094;2023-06-26T01:57:15;99052.44;;;12.50;100.00
27334;BME280;14817;57.104;-2.094;2023-06-26T01:59:46;99052.88;;;12.60;100.00
27334;BME280;14817;57.104;-2.094;2023-06-26T02:02:14;99054.50;;;12.48;100.00
27334;BME280;14817;57.104;-2.094;2023-06-26T02:04:41;99053.63;;;12.34;100.00
27334;BME280;14817;57.104;-2.094;2023-06-26T02:07:08;99058.91;;;12.20;100.00
27334;BME280;14817;57.104;-2.094;2023-06-26T02:09:36;99060.63;;;12.28;100.00
27334;BME280;14817;57.104;-2.094;2023-06-26T02:12:03;99069.25;;;12.17;100.00
27334;BME280;14817;57.104;-2.094;2023-06-26T02:14:30;99059.66;;;12.08;100.00
27334;BME280;14817;57.104;-2.094;2023-06-26T02:16:58;99074.47;;;11.97;100.00
27334;BME280;14817;57.104;-2.094;2023-06-26T02:19:26;99065.41;;;11.98;100.00
27334;BME280;14817;57.104;-2.094;2023-06-26T02:21:54;99073.53;;;12.11;100.00
27334;BME280;14817;57.104;-2.094;2023-06-26T02:24:23;99070.97;;;11.96;100.00
27334;BME280;14817;57.104;-2.094;2023-06-26T02:26:50;99054.53;;;12.06;100.00
27334;BME280;14817;57.104;-2.094;2023-06-26T02:29:17;99066.19;;;11.92;100.00
27334;BME280;14817;57.104;-2.094;2023-06-26T02:31:44;99073.44;;;11.91;100.00
27334;BME280;14817;57.104;-2.094;2023-06-26T02:34:11;99078.09;;;11.82;100.00
27334;BME280;14817;57.104;-2.094;2023-06-26T02:36:38;99081.38;;;11.78;100.00
27334;BME280;14817;57.104;-2.094;2023-06-26T02:39:07;99080.72;;;11.76;100.00
27334;BME280;14817;57.104;-2.094;2023-06-26T02:41:33;99077.69;;;11.85;100.00
27334;BME280;14817;57.104;-2.094;2023-06-26T02:44:00;99087.16;;;11.81;100.00
27334;BME280;14817;57.104;-2.094;2023-06-26T02:46:27;99089.91;;;11.88;100.00
27334;BME280;14817;57.104;-2.094;2023-06-26T02:48:55;99089.41;;;11.78;100.00
27334;BME280;14817;57.104;-2.094;2023-06-26T02:51:23;99086.78;;;11.84;100.00
27334;BME280;14817;57.104;-2.094;2023-06-26T02:53:51;99100.78;;;11.80;100.00
27334;BME280;14817;57.104;-2.094;2023-06-26T02:56:18;99098.22;;;11.72;100.00
27334;BME280;14817;57.104;-2.094;2023-06-26T02:58:45;99103.19;;;11.75;100.00
27334;BME280;14817;57.104;-2.094;2023-06-26T03:01:12;99096.75;;;11.69;100.00
27334;BME280;14817;57.104;-2.094;2023-06-26T03:03:43;99103.97;;;11.69;100.00
27334;BME280;14817;57.104;-2.094;2023-06-26T03:06:14;99094.47;;;11.66;100.00
27334;BME280;14817;57.104;-2.094;2023-06-26T03:08:42;99100.22;;;11.63;100.00
27334;BME280;14817;57.104;-2.094;2023-06-26T03:11:09;99108.66;;;11.60;100.00
27334;BME280;14817;57.104;-2.094;2023-06-26T03:13:37;99110.06;;;11.56;100.00
27334;BME280;14817;57.104;-2.094;2023-06-26T03:16:04;99123.03;;;11.52;100.00
27334;BME280;14817;57.104;-2.094;2023-06-26T03:18:31;99120.59;;;11.57;100.00
27334;BME280;14817;57.104;-2.094;2023-06-26T03:20:59;99115.16;;;11.72;100.00
27334;BME280;14817;57.104;-2.094;2023-06-26T03:23:26;99116.56;;;11.68;100.00
27334;BME280;14817;57.104;-2.094;2023-06-26T03:25:53;99111.31;;;11.60;100.00
27334;BME280;14817;57.104;-2.094;2023-06-26T03:28:31;99117.78;;;11.65;100.00
27334;BME280;14817;57.104;-2.094;2023-06-26T03:30:59;99126.06;;;11.71;100.00
27334;BME280;14817;57.104;-2.094;2023-06-26T03:33:26;99120.31;;;11.74;100.00
27334;BME280;14817;57.104;-2.094;2023-06-26T03:35:55;99119.91;;;11.77;100.00
27334;BME280;14817;57.104;-2.094;2023-06-26T03:38:22;99124.47;;;11.76;100.00
27334;BME280;14817;57.104;-2.094;2023-06-26T03:40:52;99127.59;;;11.80;100.00
27334;BME280;14817;57.104;-2.094;2023-06-26T03:43:19;99127.00;;;11.84;100.00
27334;BME280;14817;57.104;-2.094;2023-06-26T03:45:58;99123.63;;;11.76;100.00
27334;BME280;14817;57.104;-2.094;2023-06-26T03:48:27;99123.56;;;11.91;100.00
27334;BME280;14817;57.104;-2.094;2023-06-26T03:50:55;99107.59;;;12.11;100.00
27334;BME280;14817;57.104;-2.094;2023-06-26T03:53:21;99100.03;;;12.21;100.00
27334;BME280;14817;57.104;-2.094;2023-06-26T03:55:50;99084.28;;;12.53;100.00
27334;BME280;14817;57.104;-2.094;2023-06-26T03:58:17;99066.78;;;12.77;100.00
27334;BME280;14817;57.104;-2.094;2023-06-26T04:00:44;99048.19;;;12.88;100.00
27334;BME280;14817;57.104;-2.094;2023-06-26T04:03:12;99042.09;;;13.35;100.00
27334;BME280;14817;57.104;-2.094;2023-06-26T04:05:40;99047.69;;;13.46;100.00
27334;BME280;14817;57.104;-2.094;2023-06-26T04:08:08;99038.91;;;14.04;100.00
27334;BME280;14817;57.104;-2.094;2023-06-26T04:10:35;99038.78;;;13.39;100.00
27334;BME280;14817;57.104;-2.094;2023-06-26T04:13:04;99035.03;;;13.54;100.00
27334;BME280;14817;57.104;-2.094;2023-06-26T04:15:31;99043.00;;;14.14;100.00
27334;BME280;14817;57.104;-2.094;2023-06-26T04:17:58;99065.34;;;14.21;100.00
27334;BME280;14817;57.104;-2.094;2023-06-26T04:20:25;99109.75;;;13.52;100.00
27334;BME280;14817;57.104;-2.094;2023-06-26T04:22:51;99140.91;;;13.19;100.00
27334;BME280;14817;57.104;-2.094;2023-06-26T04:25:18;99124.00;;;13.59;100.00
27334;BME280;14817;57.104;-2.094;2023-06-26T04:27:45;99123.78;;;14.07;100.00
27334;BME280;14817;57.104;-2.094;2023-06-26T04:30:12;99164.28;;;13.19;100.00
27334;BME280;14817;57.104;-2.094;2023-06-26T04:32:39;99167.22;;;13.44;100.00
27334;BME280;14817;57.104;-2.094;2023-06-26T04:35:06;99168.50;;;13.88;100.00
27334;BME280;14817;57.104;-2.094;2023-06-26T04:37:33;99178.66;;;14.13;100.00
27334;BME280;14817;57.104;-2.094;2023-06-26T04:40:00;99184.56;;;14.55;100.00
27334;BME280;14817;57.104;-2.094;2023-06-26T04:42:27;99223.97;;;14.62;100.00
27334;BME280;14817;57.104;-2.094;2023-06-26T04:44:54;99240.91;;;14.89;100.00
27334;BME280;14817;57.104;-2.094;2023-06-26T04:47:20;99281.94;;;15.50;100.00
27334;BME280;14817;57.104;-2.094;2023-06-26T04:49:47;99338.16;;;15.66;100.00
27334;BME280;14817;57.104;-2.094;2023-06-26T04:52:14;99405.00;;;15.64;100.00
27334;BME280;14817;57.104;-2.094;2023-06-26T04:54:41;99470.00;;;14.63;100.00
27334;BME280;14817;57.104;-2.094;2023-06-26T04:57:08;99481.53;;;14.43;100.00
27334;BME280;14817;57.104;-2.094;2023-06-26T04:59:38;99484.44;;;13.87;100.00
27334;BME280;14817;57.104;-2.094;2023-06-26T05:02:05;99481.22;;;13.35;100.00
27334;BME280;14817;57.104;-2.094;2023-06-26T05:04:32;99457.94;;;13.21;100.00
27334;BME280;14817;57.104;-2.094;2023-06-26T05:06:59;99421.00;;;13.30;100.00
27334;BME280;14817;57.104;-2.094;2023-06-26T05:09:27;99373.78;;;14.37;100.00
27334;BME280;14817;57.104;-2.094;2023-06-26T05:11:54;99376.72;;;14.88;100.00
27334;BME280;14817;57.104;-2.094;2023-06-26T05:14:20;99424.19;;;14.76;100.00
27334;BME280;14817;57.104;-2.094;2023-06-26T05:16:50;99431.25;;;15.10;100.00
27334;BME280;14817;57.104;-2.094;2023-06-26T05:19:17;99453.78;;;15.63;100.00
27334;BME280;14817;57.104;-2.094;2023-06-26T05:21:45;99505.88;;;15.77;100.00
27334;BME280;14817;57.104;-2.094;2023-06-26T05:24:13;99533.31;;;15.54;100.00
27334;BME280;14817;57.104;-2.094;2023-06-26T05:26:40;99543.84;;;15.95;100.00
27334;BME280;14817;57.104;-2.094;2023-06-26T05:29:07;99569.84;;;15.96;100.00
27334;BME280;14817;57.104;-2.094;2023-06-26T05:31:35;99598.88;;;16.07;100.00
27334;BME280;14817;57.104;-2.094;2023-06-26T05:34:07;99610.28;;;16.81;100.00
27334;BME280;14817;57.104;-2.094;2023-06-26T05:36:35;99636.63;;;16.41;100.00
27334;BME280;14817;57.104;-2.094;2023-06-26T05:39:02;99662.84;;;16.27;100.00
27334;BME280;14817;57.104;-2.094;2023-06-26T05:41:30;99673.22;;;16.43;100.00
27334;BME280;14817;57.104;-2.094;2023-06-26T05:43:56;99703.41;;;16.00;100.00
27334;BME280;14817;57.104;-2.094;2023-06-26T05:46:23;99697.22;;;16.78;100.00
27334;BME280;14817;57.104;-2.094;2023-06-26T05:48:50;99730.88;;;17.02;100.00
27334;BME280;14817;57.104;-2.094;2023-06-26T05:51:17;99739.16;;;17.14;100.00
27334;BME280;14817;57.104;-2.094;2023-06-26T05:53:44;99777.44;;;18.01;100.00
27334;BME280;14817;57.104;-2.094;2023-06-26T05:56:11;99797.34;;;18.13;100.00
27334;BME280;14817;57.104;-2.094;2023-06-26T05:58:39;99822.50;;;18.52;100.00
27334;BME280;14817;57.104;-2.094;2023-06-26T06:01:07;99845.06;;;18.46;100.00
27334;BME280;14817;57.104;-2.094;2023-06-26T06:03:34;99904.38;;;17.98;100.00
27334;BME280;14817;57.104;-2.094;2023-06-26T06:06:01;99893.38;;;18.56;100.00
27334;BME280;14817;57.104;-2.094;2023-06-26T06:08:28;99903.81;;;17.89;100.00
27334;BME280;14817;57.104;-2.094;2023-06-26T06:10:54;99898.09;;;17.45;100.00
27334;BME280;14817;57.104;-2.094;2023-06-26T06:13:21;99894.59;;;18.35;100.00
27334;BME280;14817;57.104;-2.094;2023-06-26T06:15:49;99911.66;;;18.67;100.00
27334;BME280;14817;57.104;-2.094;2023-06-26T06:18:15;99920.75;;;18.80;100.00
27334;BME280;14817;57.104;-2.094;2023-06-26T06:20:42;99927.69;;;18.44;100.00
27334;BME280;14817;57.104;-2.094;2023-06-26T06:23:09;99934.66;;;18.58;100.00
27334;BME280;14817;57.104;-2.094;2023-06-26T06:25:36;99924.97;;;19.01;100.00
27334;BME280;14817;57.104;-2.094;2023-06-26T06:28:05;99934.56;;;19.47;100.00
27334;BME280;14817;57.104;-2.094;2023-06-26T06:30:32;99938.88;;;19.91;100.00
27334;BME280;14817;57.104;-2.094;2023-06-26T06:33:10;99922.09;;;19.21;100.00
27334;BME280;14817;57.104;-2.094;2023-06-26T06:35:37;99921.72;;;21.05;100.00
27334;BME280;14817;57.104;-2.094;2023-06-26T06:38:04;99938.84;;;20.82;100.00
27334;BME280;14817;57.104;-2.094;2023-06-26T06:40:32;99967.97;;;20.70;100.00
27334;BME280;14817;57.104;-2.094;2023-06-26T06:42:58;99957.44;;;20.43;100.00
27334;BME280;14817;57.104;-2.094;2023-06-26T06:45:26;99961.28;;;20.05;100.00
27334;BME280;14817;57.104;-2.094;2023-06-26T06:47:52;99959.03;;;20.02;100.00
27334;BME280;14817;57.104;-2.094;2023-06-26T06:50:19;99967.47;;;19.94;100.00
27334;BME280;14817;57.104;-2.094;2023-06-26T06:52:46;99966.28;;;20.08;100.00
27334;BME280;14817;57.104;-2.094;2023-06-26T06:55:13;99964.31;;;19.78;100.00
27334;BME280;14817;57.104;-2.094;2023-06-26T06:57:40;99979.88;;;19.90;100.00
27334;BME280;14817;57.104;-2.094;2023-06-26T07:00:11;99991.66;;;20.81;100.00
27334;BME280;14817;57.104;-2.094;2023-06-26T07:02:42;99975.75;;;20.48;100.00
27334;BME280;14817;57.104;-2.094;2023-06-26T07:05:11;99989.75;;;20.51;100.00
27334;BME280;14817;57.104;-2.094;2023-06-26T07:07:39;99988.13;;;20.32;100.00
27334;BME280;14817;57.104;-2.094;2023-06-26T07:10:08;99997.19;;;20.74;100.00
27334;BME280;14817;57.104;-2.094;2023-06-26T07:12:36;100008.84;;;20.93;100.00
27334;BME280;14817;57.104;-2.094;2023-06-26T07:15:04;100004.41;;;21.81;100.00
27334;BME280;14817;57.104;-2.094;2023-06-26T07:17:33;100006.81;;;21.43;100.00
27334;BME280;14817;57.104;-2.094;2023-06-26T07:20:03;100005.19;;;20.39;100.00
27334;BME280;14817;57.104;-2.094;2023-06-26T07:22:36;100005.59;;;20.24;100.00
27334;BME280;14817;57.104;-2.094;2023-06-26T07:25:04;100002.97;;;21.32;100.00
27334;BME280;14817;57.104;-2.094;2023-06-26T07:27:31;100013.78;;;21.62;100.00
27334;BME280;14817;57.104;-2.094;2023-06-26T07:30:00;100023.97;;;21.55;100.00
27334;BME280;14817;57.104;-2.094;2023-06-26T07:32:27;100019.22;;;21.38;100.00
27334;BME280;14817;57.104;-2.094;2023-06-26T07:34:54;100022.03;;;21.20;100.00
27334;BME280;14817;57.104;-2.094;2023-06-26T07:37:20;100017.56;;;21.61;100.00
27334;BME280;14817;57.104;-2.094;2023-06-26T07:39:48;100027.69;;;22.25;100.00
27334;BME280;14817;57.104;-2.094;2023-06-26T07:42:15;100032.31;;;22.12;100.00
27334;BME280;14817;57.104;-2.094;2023-06-26T07:44:42;100025.53;;;21.51;100.00
27334;BME280;14817;57.104;-2.094;2023-06-26T07:47:10;100030.09;;;22.50;100.00
27334;BME280;14817;57.104;-2.094;2023-06-26T07:49:37;100023.44;;;23.88;100.00
27334;BME280;14817;57.104;-2.094;2023-06-26T07:52:06;100036.31;;;24.09;100.00
27334;BME280;14817;57.104;-2.094;2023-06-26T07:54:33;100026.72;;;22.19;100.00
27334;BME280;14817;57.104;-2.094;2023-06-26T07:57:02;100037.63;;;22.19;100.00
27334;BME280;14817;57.104;-2.094;2023-06-26T07:59:30;100025.13;;;22.47;100.00
27334;BME280;14817;57.104;-2.094;2023-06-26T08:01:57;100039.41;;;22.66;100.00
27334;BME280;14817;57.104;-2.094;2023-06-26T08:04:26;100031.28;;;22.54;100.00
27334;BME280;14817;57.104;-2.094;2023-06-26T08:06:55;100048.28;;;22.73;100.00
27334;BME280;14817;57.104;-2.094;2023-06-26T08:09:25;100040.44;;;21.84;100.00
27334;BME280;14817;57.104;-2.094;2023-06-26T08:11:53;100043.34;;;22.17;100.00
27334;BME280;14817;57.104;-2.094;2023-06-26T08:14:21;100038.81;;;22.63;100.00
27334;BME280;14817;57.104;-2.094;2023-06-26T08:16:48;100038.59;;;23.61;100.00
27334;BME280;14817;57.104;-2.094;2023-06-26T08:19:16;100042.66;;;24.37;100.00
27334;BME280;14817;57.104;-2.094;2023-06-26T08:21:45;100050.22;;;24.08;100.00
27334;BME280;14817;57.104;-2.094;2023-06-26T08:24:13;100048.50;;;24.95;100.00
27334;BME280;14817;57.104;-2.094;2023-06-26T08:26:40;100050.81;;;23.37;100.00
27334;BME280;14817;57.104;-2.094;2023-06-26T08:29:07;100053.84;;;23.23;100.00
27334;BME280;14817;57.104;-2.094;2023-06-26T08:31:39;100055.31;;;22.16;100.00
27334;BME280;14817;57.104;-2.094;2023-06-26T08:34:07;100055.44;;;23.19;100.00
27334;BME280;14817;57.104;-2.094;2023-06-26T08:36:34;100067.91;;;23.66;100.00
27334;BME280;14817;57.104;-2.094;2023-06-26T08:39:01;100062.38;;;23.78;100.00
27334;BME280;14817;57.104;-2.094;2023-06-26T08:41:28;100061.59;;;24.60;100.00
27334;BME280;14817;57.104;-2.094;2023-06-26T08:43:54;100078.41;;;22.49;100.00
27334;BME280;14817;57.104;-2.094;2023-06-26T08:46:21;100063.78;;;23.47;100.00
27334;BME280;14817;57.104;-2.094;2023-06-26T08:48:56;100076.25;;;24.10;100.00
27334;BME280;14817;57.104;-2.094;2023-06-26T08:51:28;100077.63;;;23.40;100.00
27334;BME280;14817;57.104;-2.094;2023-06-26T08:53:58;100075.72;;;23.07;100.00
27334;BME280;14817;57.104;-2.094;2023-06-26T08:56:40;100077.25;;;24.04;100.00
27334;BME280;14817;57.104;-2.094;2023-06-26T08:59:08;100075.06;;;24.67;100.00
27334;BME280;14817;57.104;-2.094;2023-06-26T09:01:38;100078.13;;;23.88;100.00
27334;BME280;14817;57.104;-2.094;2023-06-26T09:04:05;100081.84;;;23.64;100.00
27334;BME280;14817;57.104;-2.094;2023-06-26T09:06:33;100077.28;;;23.87;100.00
27334;BME280;14817;57.104;-2.094;2023-06-26T09:09:00;100073.06;;;25.12;100.00
27334;BME280;14817;57.104;-2.094;2023-06-26T09:11:27;100076.97;;;23.83;100.00
27334;BME280;14817;57.104;-2.094;2023-06-26T09:13:55;100074.88;;;24.74;100.00
27334;BME280;14817;57.104;-2.094;2023-06-26T09:16:25;100083.53;;;24.43;100.00
27334;BME280;14817;57.104;-2.094;2023-06-26T09:18:56;100084.16;;;23.90;100.00
27334;BME280;14817;57.104;-2.094;2023-06-26T09:21:23;100095.06;;;22.93;100.00
27334;BME280;14817;57.104;-2.094;2023-06-26T09:23:52;100083.53;;;24.65;100.00
27334;BME280;14817;57.104;-2.094;2023-06-26T09:26:21;100094.66;;;23.13;100.00
27334;BME280;14817;57.104;-2.094;2023-06-26T09:28:48;100085.94;;;23.45;100.00
27334;BME280;14817;57.104;-2.094;2023-06-26T09:31:17;100088.84;;;24.11;100.00
27334;BME280;14817;57.104;-2.094;2023-06-26T09:34:04;100080.75;;;23.32;100.00
27334;BME280;14817;57.104;-2.094;2023-06-26T09:36:32;100090.69;;;22.63;100.00
27334;BME280;14817;57.104;-2.094;2023-06-26T09:39:04;100087.56;;;24.85;100.00
27334;BME280;14817;57.104;-2.094;2023-06-26T09:41:35;100088.72;;;23.67;100.00
27334;BME280;14817;57.104;-2.094;2023-06-26T09:44:02;100090.56;;;24.17;100.00
27334;BME280;14817;57.104;-2.094;2023-06-26T09:46:30;100094.63;;;22.56;100.00
27334;BME280;14817;57.104;-2.094;2023-06-26T09:48:58;100092.03;;;23.35;100.00
27334;BME280;14817;57.104;-2.094;2023-06-26T09:51:25;100100.03;;;22.15;100.00
27334;BME280;14817;57.104;-2.094;2023-06-26T09:53:52;100110.81;;;22.10;100.00
27334;BME280;14817;57.104;-2.094;2023-06-26T09:56:19;100107.69;;;21.36;100.00
27334;BME280;14817;57.104;-2.094;2023-06-26T09:58:47;100109.81;;;20.73;100.00
27334;BME280;14817;57.104;-2.094;2023-06-26T10:01:14;100099.38;;;21.31;100.00
27334;BME280;14817;57.104;-2.094;2023-06-26T10:03:41;100106.78;;;21.12;100.00
27334;BME280;14817;57.104;-2.094;2023-06-26T10:06:09;100110.69;;;21.70;100.00
27334;BME280;14817;57.104;-2.094;2023-06-26T10:08:39;100106.34;;;21.27;100.00
27334;BME280;14817;57.104;-2.094;2023-06-26T10:11:08;100113.19;;;21.71;100.00
27334;BME280;14817;57.104;-2.094;2023-06-26T10:13:42;100115.66;;;21.61;100.00
27334;BME280;14817;57.104;-2.094;2023-06-26T10:16:19;100114.66;;;21.01;100.00
27334;BME280;14817;57.104;-2.094;2023-06-26T10:18:52;100110.81;;;20.79;100.00
27334;BME280;14817;57.104;-2.094;2023-06-26T10:21:22;100119.13;;;20.10;100.00
27334;BME280;14817;57.104;-2.094;2023-06-26T10:23:51;100117.56;;;20.88;100.00
27334;BME280;14817;57.104;-2.094;2023-06-26T10:26:20;100117.28;;;21.38;100.00
27334;BME280;14817;57.104;-2.094;2023-06-26T10:28:50;100114.41;;;22.75;100.00
27334;BME280;14817;57.104;-2.094;2023-06-26T10:31:26;100105.34;;;24.38;100.00
27334;BME280;14817;57.104;-2.094;2023-06-26T10:33:55;100115.31;;;23.38;100.00
27334;BME280;14817;57.104;-2.094;2023-06-26T10:36:30;100124.53;;;22.62;100.00
27334;BME280;14817;57.104;-2.094;2023-06-26T10:38:59;100130.28;;;22.02;100.00
27334;BME280;14817;57.104;-2.094;2023-06-26T10:41:37;100127.19;;;21.33;100.00
27334;BME280;14817;57.104;-2.094;2023-06-26T10:44:18;100137.63;;;20.94;100.00
27334;BME280;14817;57.104;-2.094;2023-06-26T10:46:55;100131.16;;;21.07;100.00
27334;BME280;14817;57.104;-2.094;2023-06-26T10:49:28;100141.16;;;21.25;100.00
27334;BME280;14817;57.104;-2.094;2023-06-26T10:52:00;100147.09;;;21.03;100.00
27334;BME280;14817;57.104;-2.094;2023-06-26T10:54:32;100144.78;;;20.88;100.00
27334;BME280;14817;57.104;-2.094;2023-06-26T10:57:01;100152.69;;;21.38;100.00
27334;BME280;14817;57.104;-2.094;2023-06-26T10:59:30;100151.19;;;21.43;100.00
27334;BME280;14817;57.104;-2.094;2023-06-26T11:02:01;100153.28;;;21.40;100.00
27334;BME280;14817;57.104;-2.094;2023-06-26T11:04:42;100148.41;;;22.32;100.00
27334;BME280;14817;57.104;-2.094;2023-06-26T11:10:02;100147.47;;;21.91;100.00
27334;BME280;14817;57.104;-2.094;2023-06-26T11:12:44;100155.56;;;21.44;100.00
27334;BME280;14817;57.104;-2.094;2023-06-26T11:15:16;100160.53;;;22.24;100.00
27334;BME280;14817;57.104;-2.094;2023-06-26T11:17:44;100161.84;;;22.86;100.00
27334;BME280;14817;57.104;-2.094;2023-06-26T11:20:14;100154.03;;;23.18;100.00
27334;BME280;14817;57.104;-2.094;2023-06-26T11:22:42;100144.69;;;23.31;100.00
27334;BME280;14817;57.104;-2.094;2023-06-26T11:25:10;100156.50;;;22.27;100.00
27334;BME280;14817;57.104;-2.094;2023-06-26T11:27:41;100154.75;;;21.43;100.00
27334;BME280;14817;57.104;-2.094;2023-06-26T11:30:09;100157.66;;;22.07;100.00
27334;BME280;14817;57.104;-2.094;2023-06-26T11:32:37;100161.00;;;22.09;100.00
27334;BME280;14817;57.104;-2.094;2023-06-26T11:35:04;100158.69;;;21.59;100.00
27334;BME280;14817;57.104;-2.094;2023-06-26T11:37:32;100163.06;;;21.60;100.00
27334;BME280;14817;57.104;-2.094;2023-06-26T11:39:59;100160.50;;;21.89;100.00
27334;BME280;14817;57.104;-2.094;2023-06-26T11:42:26;100164.28;;;21.64;100.00
27334;BME280;14817;57.104;-2.094;2023-06-26T11:44:54;100159.16;;;21.68;100.00
27334;BME280;14817;57.104;-2.094;2023-06-26T11:47:21;100168.75;;;20.98;100.00
27334;BME280;14817;57.104;-2.094;2023-06-26T11:49:49;100165.59;;;20.27;100.00
27334;BME280;14817;57.104;-2.094;2023-06-26T11:52:16;100178.97;;;21.03;100.00
27334;BME280;14817;57.104;-2.094;2023-06-26T11:54:43;100167.34;;;20.95;100.00
27334;BME280;14817;57.104;-2.094;2023-06-26T11:57:14;100155.25;;;21.21;100.00
27334;BME280;14817;57.104;-2.094;2023-06-26T11:59:41;100158.88;;;22.23;100.00
27334;BME280;14817;57.104;-2.094;2023-06-26T12:02:13;100159.72;;;22.76;100.00
27334;BME280;14817;57.104;-2.094;2023-06-26T12:04:42;100153.41;;;22.35;100.00
27334;BME280;14817;57.104;-2.094;2023-06-26T12:07:10;100149.69;;;23.05;100.00
27334;BME280;14817;57.104;-2.094;2023-06-26T12:09:41;100164.34;;;23.61;100.00
27334;BME280;14817;57.104;-2.094;2023-06-26T12:12:11;100172.47;;;22.58;100.00
27334;BME280;14817;57.104;-2.094;2023-06-26T12:14:38;100174.19;;;22.24;100.00
27334;BME280;14817;57.104;-2.094;2023-06-26T12:17:11;100178.94;;;21.63;100.00
27334;BME280;14817;57.104;-2.094;2023-06-26T12:19:42;100173.13;;;21.29;100.00
27334;BME280;14817;57.104;-2.094;2023-06-26T12:22:09;100169.47;;;21.66;100.00
27334;BME280;14817;57.104;-2.094;2023-06-26T12:24:38;100174.34;;;21.64;100.00
27334;BME280;14817;57.104;-2.094;2023-06-26T12:27:12;100175.78;;;22.01;100.00
27334;BME280;14817;57.104;-2.094;2023-06-26T12:29:47;100177.56;;;21.84;100.00
27334;BME280;14817;57.104;-2.094;2023-06-26T12:32:15;100181.03;;;21.91;100.00
27334;BME280;14817;57.104;-2.094;2023-06-26T12:34:48;100180.91;;;22.21;100.00
27334;BME280;14817;57.104;-2.094;2023-06-26T12:37:16;100188.13;;;22.16;100.00
27334;BME280;14817;57.104;-2.094;2023-06-26T12:39:57;100181.16;;;22.32;100.00
27334;BME280;14817;57.104;-2.094;2023-06-26T12:42:26;100184.78;;;21.78;100.00
27334;BME280;14817;57.104;-2.094;2023-06-26T12:44:54;100179.47;;;22.54;100.00
27334;BME280;14817;57.104;-2.094;2023-06-26T12:47:25;100176.69;;;21.60;100.00
27334;BME280;14817;57.104;-2.094;2023-06-26T12:49:54;100174.50;;;22.04;100.00
27334;BME280;14817;57.104;-2.094;2023-06-26T12:52:21;100181.88;;;22.39;100.00
27334;BME280;14817;57.104;-2.094;2023-06-26T12:54:52;100188.03;;;21.87;100.00
27334;BME280;14817;57.104;-2.094;2023-06-26T12:57:19;100185.03;;;22.12;100.00